Portada
METAR-TAF:

METAR-TAF

Aeropuertos :

Aeropuerto Internacional de Nador

Nador, Marruecos

latitud: 34-59-20N, longitud: 003-01-42W, altitud: 175 m

Observación

El informe se hizo hace 50 minutos, a las 03:00 UTC
Viento 2 kt con dirección variable
Temperatura 23°C
Humedad 83%
Presión 1013 hPa
Visibilidad: 6000 m
Escasas nubes a una altura de 600 ft
Nubes dispersas a una altura de 8000 ft

METAR: GMMW 300300Z VRB02KT 6000 FEW006 SCT080 23/20 Q1013 NOSIG

Hora: 04:50 (03:50 UTC)

Pronóstico

El informe se hizo hace 4 horas y 50 minutos, a las 23:00 UTC
Pronóstico válido del 30 a las 00 UTC al 31 a las 06 UTC
Viento 2 kt con dirección variable
Visibilidad: 6000 m
Escasas nubes a una altura de 600 ft
Nubes dispersas a una altura de 8000 ft
Probabilidad 30%
del 30 a las 00 UTC al 30 a las 07 UTC
Visibilidad: 4000 m
Cielo nuboso a una altura de 1000 ft
neblina

TAF: GMMW 292300Z 3000/3106 VRB02KT 6000 FEW006 SCT080 PROB30 3000/3007 4000 BR BKN010

Observaciones y pronósticos meteorológicos de más de 4000 aeropuertos (mensajes METAR y TAF).

Los puntos amarillos y rojos representan las estaciones disponibles.

Ponga el ratón en el punto deseado para ver el nombre de la estación.

Haga clic para ver las observaciones y los pronósticos meteorológicos.

Para cambiar el mapa : haga clic en los botones verdes con una cruz de color negro para hacer un zoom, en el botón verde con un guión para alejar o en las flechas verdes para mapas adyacentes.


METAR-TAF: